sensor_id;sensor_type;location;lat;lon;timestamp;temperature;humidity
42683;DHT22;28293;50.930;3.464;2023-05-17T00:02:23;9.10;84.30
42683;DHT22;28293;50.930;3.464;2023-05-17T00:04:48;9.10;84.40
42683;DHT22;28293;50.930;3.464;2023-05-17T00:07:14;9.00;84.50
42683;DHT22;28293;50.930;3.464;2023-05-17T00:09:40;9.00;84.60
42683;DHT22;28293;50.930;3.464;2023-05-17T00:12:06;9.00;84.50
42683;DHT22;28293;50.930;3.464;2023-05-17T00:14:32;9.00;84.50
42683;DHT22;28293;50.930;3.464;2023-05-17T00:16:57;9.00;84.30
42683;DHT22;28293;50.930;3.464;2023-05-17T00:19:23;8.90;84.20
42683;DHT22;28293;50.930;3.464;2023-05-17T00:21:49;8.80;84.20
42683;DHT22;28293;50.930;3.464;2023-05-17T00:24:15;8.80;84.50
42683;DHT22;28293;50.930;3.464;2023-05-17T00:26:40;8.80;84.70
42683;DHT22;28293;50.930;3.464;2023-05-17T00:29:06;8.80;84.90
42683;DHT22;28293;50.930;3.464;2023-05-17T00:31:31;8.80;84.90
42683;DHT22;28293;50.930;3.464;2023-05-17T00:33:57;8.80;84.90
42683;DHT22;28293;50.930;3.464;2023-05-17T00:36:23;8.70;85.10
42683;DHT22;28293;50.930;3.464;2023-05-17T00:38:48;8.70;85.10
42683;DHT22;28293;50.930;3.464;2023-05-17T00:41:14;8.70;85.10
42683;DHT22;28293;50.930;3.464;2023-05-17T00:43:40;8.70;85.00
42683;DHT22;28293;50.930;3.464;2023-05-17T00:46:06;8.70;85.10
42683;DHT22;28293;50.930;3.464;2023-05-17T00:48:31;8.70;85.20
42683;DHT22;28293;50.930;3.464;2023-05-17T00:50:57;8.60;85.20
42683;DHT22;28293;50.930;3.464;2023-05-17T00:53:23;8.60;85.20
42683;DHT22;28293;50.930;3.464;2023-05-17T00:55:50;8.60;85.00
42683;DHT22;28293;50.930;3.464;2023-05-17T00:58:16;8.60;84.90
42683;DHT22;28293;50.930;3.464;2023-05-17T01:00:42;8.50;84.90
42683;DHT22;28293;50.930;3.464;2023-05-17T01:03:08;8.50;85.10
42683;DHT22;28293;50.930;3.464;2023-05-17T01:05:33;8.50;85.10
42683;DHT22;28293;50.930;3.464;2023-05-17T01:07:59;8.50;85.10
42683;DHT22;28293;50.930;3.464;2023-05-17T01:10:34;8.40;85.10
42683;DHT22;28293;50.930;3.464;2023-05-17T01:13:05;8.40;85.10
42683;DHT22;28293;50.930;3.464;2023-05-17T01:15:37;8.40;85.10
42683;DHT22;28293;50.930;3.464;2023-05-17T01:24:26;8.30;85.30
42683;DHT22;28293;50.930;3.464;2023-05-17T01:26:54;8.30;85.20
42683;DHT22;28293;50.930;3.464;2023-05-17T01:29:23;8.20;85.30
42683;DHT22;28293;50.930;3.464;2023-05-17T01:31:52;8.30;85.50
42683;DHT22;28293;50.930;3.464;2023-05-17T01:34:28;8.30;85.60
42683;DHT22;28293;50.930;3.464;2023-05-17T01:36:54;8.20;85.60
42683;DHT22;28293;50.930;3.464;2023-05-17T01:39:20;8.10;85.20
42683;DHT22;28293;50.930;3.464;2023-05-17T01:41:59;8.10;85.10
42683;DHT22;28293;50.930;3.464;2023-05-17T01:47:04;8.10;85.20
42683;DHT22;28293;50.930;3.464;2023-05-17T01:49:37;8.10;85.30
42683;DHT22;28293;50.930;3.464;2023-05-17T01:52:27;8.00;85.50
42683;DHT22;28293;50.930;3.464;2023-05-17T01:57:27;8.00;85.70
42683;DHT22;28293;50.930;3.464;2023-05-17T01:59:54;8.00;85.70
42683;DHT22;28293;50.930;3.464;2023-05-17T02:02:24;7.90;85.70
42683;DHT22;28293;50.930;3.464;2023-05-17T02:04:50;7.90;85.50
42683;DHT22;28293;50.930;3.464;2023-05-17T02:07:16;7.80;85.50
42683;DHT22;28293;50.930;3.464;2023-05-17T02:09:41;7.80;86.00
42683;DHT22;28293;50.930;3.464;2023-05-17T02:12:07;7.70;86.20
42683;DHT22;28293;50.930;3.464;2023-05-17T02:14:33;7.70;86.30
42683;DHT22;28293;50.930;3.464;2023-05-17T02:16:58;7.70;86.60
42683;DHT22;28293;50.930;3.464;2023-05-17T02:19:24;7.70;86.80
42683;DHT22;28293;50.930;3.464;2023-05-17T02:21:50;7.70;86.90
42683;DHT22;28293;50.930;3.464;2023-05-17T02:24:16;7.60;87.20
42683;DHT22;28293;50.930;3.464;2023-05-17T02:26:42;7.60;87.30
42683;DHT22;28293;50.930;3.464;2023-05-17T02:29:08;7.60;87.50
42683;DHT22;28293;50.930;3.464;2023-05-17T02:31:35;7.70;87.60
42683;DHT22;28293;50.930;3.464;2023-05-17T02:34:01;7.60;87.60
42683;DHT22;28293;50.930;3.464;2023-05-17T02:36:27;7.60;87.70
42683;DHT22;28293;50.930;3.464;2023-05-17T02:38:52;7.60;87.70
42683;DHT22;28293;50.930;3.464;2023-05-17T02:41:18;7.60;87.70
42683;DHT22;28293;50.930;3.464;2023-05-17T02:43:44;7.50;87.60
42683;DHT22;28293;50.930;3.464;2023-05-17T02:46:10;7.40;87.70
42683;DHT22;28293;50.930;3.464;2023-05-17T02:48:35;7.40;87.80
42683;DHT22;28293;50.930;3.464;2023-05-17T02:51:01;7.40;87.90
42683;DHT22;28293;50.930;3.464;2023-05-17T02:53:27;7.40;88.00
42683;DHT22;28293;50.930;3.464;2023-05-17T02:55:52;7.50;88.20
42683;DHT22;28293;50.930;3.464;2023-05-17T02:58:22;7.50;88.00
42683;DHT22;28293;50.930;3.464;2023-05-17T03:00:49;7.50;87.90
42683;DHT22;28293;50.930;3.464;2023-05-17T03:03:14;7.40;87.80
42683;DHT22;28293;50.930;3.464;2023-05-17T03:05:42;7.40;87.90
42683;DHT22;28293;50.930;3.464;2023-05-17T03:08:07;7.40;87.90
42683;DHT22;28293;50.930;3.464;2023-05-17T03:10:33;7.40;87.90
42683;DHT22;28293;50.930;3.464;2023-05-17T03:12:59;7.50;87.80
42683;DHT22;28293;50.930;3.464;2023-05-17T03:15:25;7.40;87.80
42683;DHT22;28293;50.930;3.464;2023-05-17T03:17:54;7.40;87.60
42683;DHT22;28293;50.930;3.464;2023-05-17T03:20:21;7.30;87.50
42683;DHT22;28293;50.930;3.464;2023-05-17T03:22:47;7.30;87.50
42683;DHT22;28293;50.930;3.464;2023-05-17T03:25:13;7.40;87.30
42683;DHT22;28293;50.930;3.464;2023-05-17T03:27:38;7.30;87.20
42683;DHT22;28293;50.930;3.464;2023-05-17T03:30:04;7.20;87.10
42683;DHT22;28293;50.930;3.464;2023-05-17T03:32:30;7.30;87.10
42683;DHT22;28293;50.930;3.464;2023-05-17T03:34:56;7.20;87.10
42683;DHT22;28293;50.930;3.464;2023-05-17T03:37:21;7.20;87.00
42683;DHT22;28293;50.930;3.464;2023-05-17T03:39:47;7.20;87.10
42683;DHT22;28293;50.930;3.464;2023-05-17T03:42:13;7.10;87.10
42683;DHT22;28293;50.930;3.464;2023-05-17T03:44:39;7.20;87.20
42683;DHT22;28293;50.930;3.464;2023-05-17T03:47:05;7.20;87.20
42683;DHT22;28293;50.930;3.464;2023-05-17T03:49:31;7.20;87.30
42683;DHT22;28293;50.930;3.464;2023-05-17T03:51:57;7.20;87.40
42683;DHT22;28293;50.930;3.464;2023-05-17T03:54:22;7.30;87.30
42683;DHT22;28293;50.930;3.464;2023-05-17T03:56:48;7.30;87.30
42683;DHT22;28293;50.930;3.464;2023-05-17T03:59:14;7.30;87.20
42683;DHT22;28293;50.930;3.464;2023-05-17T04:01:42;7.30;87.20
42683;DHT22;28293;50.930;3.464;2023-05-17T04:04:08;7.30;87.20
42683;DHT22;28293;50.930;3.464;2023-05-17T04:06:34;7.40;87.00
42683;DHT22;28293;50.930;3.464;2023-05-17T04:08:59;7.40;86.90
42683;DHT22;28293;50.930;3.464;2023-05-17T04:11:26;7.40;86.80
42683;DHT22;28293;50.930;3.464;2023-05-17T04:13:53;7.50;86.80
42683;DHT22;28293;50.930;3.464;2023-05-17T04:16:19;7.60;86.60
42683;DHT22;28293;50.930;3.464;2023-05-17T04:18:45;7.50;86.30
42683;DHT22;28293;50.930;3.464;2023-05-17T04:21:12;7.60;86.30
42683;DHT22;28293;50.930;3.464;2023-05-17T04:23:37;7.60;86.40
42683;DHT22;28293;50.930;3.464;2023-05-17T04:26:03;7.70;86.50
42683;DHT22;28293;50.930;3.464;2023-05-17T04:28:30;7.80;86.60
42683;DHT22;28293;50.930;3.464;2023-05-17T04:30:57;7.80;86.60
42683;DHT22;28293;50.930;3.464;2023-05-17T04:33:23;7.90;86.60
42683;DHT22;28293;50.930;3.464;2023-05-17T04:35:49;7.90;86.60
42683;DHT22;28293;50.930;3.464;2023-05-17T04:38:15;8.00;86.60
42683;DHT22;28293;50.930;3.464;2023-05-17T04:40:41;8.10;86.60
42683;DHT22;28293;50.930;3.464;2023-05-17T04:43:07;8.10;86.60
42683;DHT22;28293;50.930;3.464;2023-05-17T04:45:33;8.20;86.40
42683;DHT22;28293;50.930;3.464;2023-05-17T04:47:59;8.20;86.60
42683;DHT22;28293;50.930;3.464;2023-05-17T04:50:26;8.30;86.40
42683;DHT22;28293;50.930;3.464;2023-05-17T04:52:51;8.30;86.40
42683;DHT22;28293;50.930;3.464;2023-05-17T04:55:17;8.40;86.40
42683;DHT22;28293;50.930;3.464;2023-05-17T04:57:43;8.50;86.50
42683;DHT22;28293;50.930;3.464;2023-05-17T05:00:09;8.50;86.40
42683;DHT22;28293;50.930;3.464;2023-05-17T05:02:35;8.60;86.40
42683;DHT22;28293;50.930;3.464;2023-05-17T05:05:01;8.60;86.30
42683;DHT22;28293;50.930;3.464;2023-05-17T05:07:29;8.80;86.30
42683;DHT22;28293;50.930;3.464;2023-05-17T05:09:55;8.80;86.10
42683;DHT22;28293;50.930;3.464;2023-05-17T05:12:21;9.00;86.10
42683;DHT22;28293;50.930;3.464;2023-05-17T05:14:47;9.00;86.00
42683;DHT22;28293;50.930;3.464;2023-05-17T05:17:13;9.10;86.00
42683;DHT22;28293;50.930;3.464;2023-05-17T05:19:38;9.10;86.00
42683;DHT22;28293;50.930;3.464;2023-05-17T05:22:04;9.20;85.90
42683;DHT22;28293;50.930;3.464;2023-05-17T05:24:30;9.30;85.90
42683;DHT22;28293;50.930;3.464;2023-05-17T05:26:55;9.40;85.90
42683;DHT22;28293;50.930;3.464;2023-05-17T05:29:21;9.50;85.80
42683;DHT22;28293;50.930;3.464;2023-05-17T05:31:47;9.60;85.90
42683;DHT22;28293;50.930;3.464;2023-05-17T05:34:13;9.70;85.60
42683;DHT22;28293;50.930;3.464;2023-05-17T05:36:41;9.80;85.30
42683;DHT22;28293;50.930;3.464;2023-05-17T05:39:17;9.80;85.60
42683;DHT22;28293;50.930;3.464;2023-05-17T05:41:43;10.00;85.30
42683;DHT22;28293;50.930;3.464;2023-05-17T05:44:09;10.10;85.40
42683;DHT22;28293;50.930;3.464;2023-05-17T05:46:35;10.20;85.20
42683;DHT22;28293;50.930;3.464;2023-05-17T05:49:00;10.20;85.30
42683;DHT22;28293;50.930;3.464;2023-05-17T05:51:26;10.40;85.10
42683;DHT22;28293;50.930;3.464;2023-05-17T05:53:52;10.50;84.90
42683;DHT22;28293;50.930;3.464;2023-05-17T05:56:18;10.60;84.70
42683;DHT22;28293;50.930;3.464;2023-05-17T05:58:43;10.70;84.30
42683;DHT22;28293;50.930;3.464;2023-05-17T06:01:09;10.70;84.00
42683;DHT22;28293;50.930;3.464;2023-05-17T06:03:35;10.80;84.10
42683;DHT22;28293;50.930;3.464;2023-05-17T06:06:01;10.80;84.10
42683;DHT22;28293;50.930;3.464;2023-05-17T06:08:30;10.90;83.60
42683;DHT22;28293;50.930;3.464;2023-05-17T06:10:56;10.90;84.00
42683;DHT22;28293;50.930;3.464;2023-05-17T06:13:21;11.00;84.00
42683;DHT22;28293;50.930;3.464;2023-05-17T06:15:47;11.00;83.90
42683;DHT22;28293;50.930;3.464;2023-05-17T06:18:13;11.00;83.70
42683;DHT22;28293;50.930;3.464;2023-05-17T06:20:38;11.10;83.60
42683;DHT22;28293;50.930;3.464;2023-05-17T06:23:04;11.20;83.80
42683;DHT22;28293;50.930;3.464;2023-05-17T06:25:30;11.50;83.10
42683;DHT22;28293;50.930;3.464;2023-05-17T06:27:56;11.60;82.40
42683;DHT22;28293;50.930;3.464;2023-05-17T06:30:21;11.80;82.60
42683;DHT22;28293;50.930;3.464;2023-05-17T06:32:47;12.10;82.40
42683;DHT22;28293;50.930;3.464;2023-05-17T06:35:13;12.20;81.40
42683;DHT22;28293;50.930;3.464;2023-05-17T06:37:38;12.40;80.60
42683;DHT22;28293;50.930;3.464;2023-05-17T06:40:06;12.50;80.50
42683;DHT22;28293;50.930;3.464;2023-05-17T06:42:32;12.50;79.90
42683;DHT22;28293;50.930;3.464;2023-05-17T06:44:58;12.50;79.80
42683;DHT22;28293;50.930;3.464;2023-05-17T06:47:24;12.50;79.80
42683;DHT22;28293;50.930;3.464;2023-05-17T06:49:50;12.50;80.10
42683;DHT22;28293;50.930;3.464;2023-05-17T06:52:16;12.60;80.00
42683;DHT22;28293;50.930;3.464;2023-05-17T06:54:42;12.70;79.10
42683;DHT22;28293;50.930;3.464;2023-05-17T06:57:08;12.90;78.80
42683;DHT22;28293;50.930;3.464;2023-05-17T06:59:35;13.20;78.60
42683;DHT22;28293;50.930;3.464;2023-05-17T07:02:01;13.40;77.80
42683;DHT22;28293;50.930;3.464;2023-05-17T07:04:27;13.40;76.50
42683;DHT22;28293;50.930;3.464;2023-05-17T07:06:52;13.60;76.70
42683;DHT22;28293;50.930;3.464;2023-05-17T07:09:19;13.70;76.40
42683;DHT22;28293;50.930;3.464;2023-05-17T07:11:46;13.70;75.80
42683;DHT22;28293;50.930;3.464;2023-05-17T07:14:12;13.80;76.20
42683;DHT22;28293;50.930;3.464;2023-05-17T07:16:38;14.00;76.30
42683;DHT22;28293;50.930;3.464;2023-05-17T07:19:04;14.20;77.10
42683;DHT22;28293;50.930;3.464;2023-05-17T07:21:31;14.20;74.30
42683;DHT22;28293;50.930;3.464;2023-05-17T07:23:57;14.10;75.20
42683;DHT22;28293;50.930;3.464;2023-05-17T07:26:22;14.10;75.30
42683;DHT22;28293;50.930;3.464;2023-05-17T07:28:48;14.10;74.90
42683;DHT22;28293;50.930;3.464;2023-05-17T07:31:14;14.20;74.70
42683;DHT22;28293;50.930;3.464;2023-05-17T07:33:40;14.50;74.50
42683;DHT22;28293;50.930;3.464;2023-05-17T07:36:06;14.60;73.70
42683;DHT22;28293;50.930;3.464;2023-05-17T07:38:32;14.60;74.30
42683;DHT22;28293;50.930;3.464;2023-05-17T07:41:02;14.80;72.70
42683;DHT22;28293;50.930;3.464;2023-05-17T07:43:29;14.70;71.00
42683;DHT22;28293;50.930;3.464;2023-05-17T07:45:55;15.00;70.50
42683;DHT22;28293;50.930;3.464;2023-05-17T07:48:21;15.10;70.10
42683;DHT22;28293;50.930;3.464;2023-05-17T07:50:47;15.30;70.10
42683;DHT22;28293;50.930;3.464;2023-05-17T07:53:14;15.30;69.70
42683;DHT22;28293;50.930;3.464;2023-05-17T07:55:40;15.20;68.00
42683;DHT22;28293;50.930;3.464;2023-05-17T07:58:08;14.90;66.90
42683;DHT22;28293;50.930;3.464;2023-05-17T08:00:34;15.10;67.20
42683;DHT22;28293;50.930;3.464;2023-05-17T08:03:00;15.30;68.30
42683;DHT22;28293;50.930;3.464;2023-05-17T08:05:26;15.40;67.40
42683;DHT22;28293;50.930;3.464;2023-05-17T08:07:52;15.60;67.20
42683;DHT22;28293;50.930;3.464;2023-05-17T08:10:18;15.60;65.70
42683;DHT22;28293;50.930;3.464;2023-05-17T08:12:44;15.30;67.20
42683;DHT22;28293;50.930;3.464;2023-05-17T08:15:10;15.60;67.00
42683;DHT22;28293;50.930;3.464;2023-05-17T08:17:36;15.60;65.80
42683;DHT22;28293;50.930;3.464;2023-05-17T08:20:02;15.70;66.10
42683;DHT22;28293;50.930;3.464;2023-05-17T08:22:30;15.80;64.60
42683;DHT22;28293;50.930;3.464;2023-05-17T08:24:56;15.80;62.20
42683;DHT22;28293;50.930;3.464;2023-05-17T08:27:21;15.70;64.20
42683;DHT22;28293;50.930;3.464;2023-05-17T08:29:48;15.90;63.40
42683;DHT22;28293;50.930;3.464;2023-05-17T08:32:16;15.70;63.40
42683;DHT22;28293;50.930;3.464;2023-05-17T08:34:41;15.90;63.70
42683;DHT22;28293;50.930;3.464;2023-05-17T08:37:07;16.00;63.70
42683;DHT22;28293;50.930;3.464;2023-05-17T08:39:34;16.10;61.60
42683;DHT22;28293;50.930;3.464;2023-05-17T08:42:00;16.10;63.50
42683;DHT22;28293;50.930;3.464;2023-05-17T08:44:27;16.10;63.80
42683;DHT22;28293;50.930;3.464;2023-05-17T08:46:54;16.50;62.00
42683;DHT22;28293;50.930;3.464;2023-05-17T08:49:21;16.80;61.50
42683;DHT22;28293;50.930;3.464;2023-05-17T08:51:52;17.20;59.20
42683;DHT22;28293;50.930;3.464;2023-05-17T08:54:18;16.80;57.80
42683;DHT22;28293;50.930;3.464;2023-05-17T08:56:44;16.50;59.60
42683;DHT22;28293;50.930;3.464;2023-05-17T08:59:11;16.80;58.70
42683;DHT22;28293;50.930;3.464;2023-05-17T09:01:49;16.30;59.60
42683;DHT22;28293;50.930;3.464;2023-05-17T09:04:20;16.60;58.60
42683;DHT22;28293;50.930;3.464;2023-05-17T09:06:46;16.60;60.60
42683;DHT22;28293;50.930;3.464;2023-05-17T09:09:16;16.40;59.70
42683;DHT22;28293;50.930;3.464;2023-05-17T09:11:43;16.20;58.70
42683;DHT22;28293;50.930;3.464;2023-05-17T09:14:09;16.30;58.70
42683;DHT22;28293;50.930;3.464;2023-05-17T09:16:41;16.50;60.00
42683;DHT22;28293;50.930;3.464;2023-05-17T09:19:16;16.80;58.30
42683;DHT22;28293;50.930;3.464;2023-05-17T09:21:45;16.60;55.40
42683;DHT22;28293;50.930;3.464;2023-05-17T09:24:27;16.70;57.60
42683;DHT22;28293;50.930;3.464;2023-05-17T09:27:00;17.10;57.30
42683;DHT22;28293;50.930;3.464;2023-05-17T09:29:26;17.20;56.60
42683;DHT22;28293;50.930;3.464;2023-05-17T09:31:55;17.00;55.70
42683;DHT22;28293;50.930;3.464;2023-05-17T09:34:23;16.80;55.00
42683;DHT22;28293;50.930;3.464;2023-05-17T09:36:49;16.80;53.30
42683;DHT22;28293;50.930;3.464;2023-05-17T09:39:16;17.20;53.00
42683;DHT22;28293;50.930;3.464;2023-05-17T09:41:45;17.10;53.40
42683;DHT22;28293;50.930;3.464;2023-05-17T09:44:14;17.10;54.10
42683;DHT22;28293;50.930;3.464;2023-05-17T09:46:45;17.40;53.60
42683;DHT22;28293;50.930;3.464;2023-05-17T09:49:12;17.50;52.70
42683;DHT22;28293;50.930;3.464;2023-05-17T09:51:47;17.60;53.20
42683;DHT22;28293;50.930;3.464;2023-05-17T09:54:12;17.60;53.60
42683;DHT22;28293;50.930;3.464;2023-05-17T09:56:39;17.60;53.90
42683;DHT22;28293;50.930;3.464;2023-05-17T09:59:14;17.60;55.30
42683;DHT22;28293;50.930;3.464;2023-05-17T10:01:43;17.70;53.40
42683;DHT22;28293;50.930;3.464;2023-05-17T10:04:12;18.00;51.70
42683;DHT22;28293;50.930;3.464;2023-05-17T10:06:40;17.70;49.70
42683;DHT22;28293;50.930;3.464;2023-05-17T10:09:08;17.60;50.30
42683;DHT22;28293;50.930;3.464;2023-05-17T10:14:55;17.50;50.50
42683;DHT22;28293;50.930;3.464;2023-05-17T10:17:21;17.70;51.10
42683;DHT22;28293;50.930;3.464;2023-05-17T10:19:48;17.70;48.60
42683;DHT22;28293;50.930;3.464;2023-05-17T10:22:20;18.00;51.70
42683;DHT22;28293;50.930;3.464;2023-05-17T10:24:47;18.00;49.10
42683;DHT22;28293;50.930;3.464;2023-05-17T10:27:14;18.10;48.50
42683;DHT22;28293;50.930;3.464;2023-05-17T10:29:41;18.40;48.30
42683;DHT22;28293;50.930;3.464;2023-05-17T10:32:08;18.10;49.10
42683;DHT22;28293;50.930;3.464;2023-05-17T10:34:37;18.10;47.80
42683;DHT22;28293;50.930;3.464;2023-05-17T10:37:04;18.10;50.30
42683;DHT22;28293;50.930;3.464;2023-05-17T10:39:34;18.10;50.10
42683;DHT22;28293;50.930;3.464;2023-05-17T10:42:06;18.20;49.70
42683;DHT22;28293;50.930;3.464;2023-05-17T10:44:34;18.40;50.00
42683;DHT22;28293;50.930;3.464;2023-05-17T10:47:02;18.20;50.50
42683;DHT22;28293;50.930;3.464;2023-05-17T10:49:29;18.00;49.50
42683;DHT22;28293;50.930;3.464;2023-05-17T10:52:14;17.80;51.60
42683;DHT22;28293;50.930;3.464;2023-05-17T10:54:42;18.20;50.80
42683;DHT22;28293;50.930;3.464;2023-05-17T10:57:09;17.90;49.70
42683;DHT22;28293;50.930;3.464;2023-05-17T10:59:57;17.80;50.80
42683;DHT22;28293;50.930;3.464;2023-05-17T11:02:26;18.00;50.50
42683;DHT22;28293;50.930;3.464;2023-05-17T11:04:55;17.90;49.30
42683;DHT22;28293;50.930;3.464;2023-05-17T11:07:31;17.80;49.70
42683;DHT22;28293;50.930;3.464;2023-05-17T11:12:46;18.10;48.40
42683;DHT22;28293;50.930;3.464;2023-05-17T11:15:23;18.10;47.10
42683;DHT22;28293;50.930;3.464;2023-05-17T11:17:52;17.70;46.80
42683;DHT22;28293;50.930;3.464;2023-05-17T11:23:15;18.20;47.50
42683;DHT22;28293;50.930;3.464;2023-05-17T11:25:41;18.10;49.40
42683;DHT22;28293;50.930;3.464;2023-05-17T11:28:08;17.80;49.60
42683;DHT22;28293;50.930;3.464;2023-05-17T11:30:42;17.40;50.70
42683;DHT22;28293;50.930;3.464;2023-05-17T11:33:12;17.70;48.70
42683;DHT22;28293;50.930;3.464;2023-05-17T11:35:38;17.80;49.10
42683;DHT22;28293;50.930;3.464;2023-05-17T11:38:29;17.90;47.80
42683;DHT22;28293;50.930;3.464;2023-05-17T11:41:18;18.50;48.70
42683;DHT22;28293;50.930;3.464;2023-05-17T11:43:45;18.50;45.90
42683;DHT22;28293;50.930;3.464;2023-05-17T11:46:22;18.30;47.00
42683;DHT22;28293;50.930;3.464;2023-05-17T11:48:50;18.20;46.40
42683;DHT22;28293;50.930;3.464;2023-05-17T11:51:19;18.30;45.20
42683;DHT22;28293;50.930;3.464;2023-05-17T11:53:47;18.50;44.70
42683;DHT22;28293;50.930;3.464;2023-05-17T11:56:14;18.90;44.80
42683;DHT22;28293;50.930;3.464;2023-05-17T11:58:41;18.80;44.60
42683;DHT22;28293;50.930;3.464;2023-05-17T12:01:09;18.60;43.90
42683;DHT22;28293;50.930;3.464;2023-05-17T12:03:35;18.40;45.50
42683;DHT22;28293;50.930;3.464;2023-05-17T12:06:09;18.50;46.90
42683;DHT22;28293;50.930;3.464;2023-05-17T12:08:37;18.60;45.00
42683;DHT22;28293;50.930;3.464;2023-05-17T12:11:05;18.60;44.00
42683;DHT22;28293;50.930;3.464;2023-05-17T12:13:34;18.30;45.80
42683;DHT22;28293;50.930;3.464;2023-05-17T12:16:02;18.50;46.90
42683;DHT22;28293;50.930;3.464;2023-05-17T12:18:38;18.40;43.90
42683;DHT22;28293;50.930;3.464;2023-05-17T12:21:05;18.40;44.90
42683;DHT22;28293;50.930;3.464;2023-05-17T12:23:36;18.30;45.80
42683;DHT22;28293;50.930;3.464;2023-05-17T12:26:10;18.50;45.60
42683;DHT22;28293;50.930;3.464;2023-05-17T12:28:41;18.20;46.30
42683;DHT22;28293;50.930;3.464;2023-05-17T12:31:12;18.10;45.30
42683;DHT22;28293;50.930;3.464;2023-05-17T12:33:41;18.50;47.00
42683;DHT22;28293;50.930;3.464;2023-05-17T12:36:08;18.90;46.40
42683;DHT22;28293;50.930;3.464;2023-05-17T12:38:37;18.60;46.50
42683;DHT22;28293;50.930;3.464;2023-05-17T12:41:10;18.40;46.40
42683;DHT22;28293;50.930;3.464;2023-05-17T12:43:37;18.60;48.70
42683;DHT22;28293;50.930;3.464;2023-05-17T12:46:08;19.00;47.40
42683;DHT22;28293;50.930;3.464;2023-05-17T12:48:35;18.80;44.70
42683;DHT22;28293;50.930;3.464;2023-05-17T12:51:12;18.00;47.10
42683;DHT22;28293;50.930;3.464;2023-05-17T12:53:40;18.20;46.80
42683;DHT22;28293;50.930;3.464;2023-05-17T12:56:07;17.90;45.70
42683;DHT22;28293;50.930;3.464;2023-05-17T12:58:33;18.20;48.00
42683;DHT22;28293;50.930;3.464;2023-05-17T13:01:03;18.30;46.90
42683;DHT22;28293;50.930;3.464;2023-05-17T13:03:32;18.50;47.10
42683;DHT22;28293;50.930;3.464;2023-05-17T13:06:07;18.70;46.70
42683;DHT22;28293;50.930;3.464;2023-05-17T13:08:37;18.60;46.10
42683;DHT22;28293;50.930;3.464;2023-05-17T13:11:12;18.70;46.00
42683;DHT22;28293;50.930;3.464;2023-05-17T13:13:39;18.50;46.80
42683;DHT22;28293;50.930;3.464;2023-05-17T13:16:05;18.60;46.20
42683;DHT22;28293;50.930;3.464;2023-05-17T13:18:49;18.60;47.40
42683;DHT22;28293;50.930;3.464;2023-05-17T13:21:16;18.60;46.00
42683;DHT22;28293;50.930;3.464;2023-05-17T13:23:43;18.60;46.60
42683;DHT22;28293;50.930;3.464;2023-05-17T13:26:09;18.30;46.00
42683;DHT22;28293;50.930;3.464;2023-05-17T13:28:36;18.40;46.20
42683;DHT22;28293;50.930;3.464;2023-05-17T13:31:01;18.70;46.10
42683;DHT22;28293;50.930;3.464;2023-05-17T13:33:27;18.60;46.10
42683;DHT22;28293;50.930;3.464;2023-05-17T13:35:53;18.30;47.10
42683;DHT22;28293;50.930;3.464;2023-05-17T13:38:19;18.10;47.30
42683;DHT22;28293;50.930;3.464;2023-05-17T13:40:45;17.60;48.60
42683;DHT22;28293;50.930;3.464;2023-05-17T13:43:11;17.30;48.60
42683;DHT22;28293;50.930;3.464;2023-05-17T13:45:36;17.60;49.50
42683;DHT22;28293;50.930;3.464;2023-05-17T13:48:02;18.10;48.80
42683;DHT22;28293;50.930;3.464;2023-05-17T13:50:28;18.10;47.60
42683;DHT22;28293;50.930;3.464;2023-05-17T13:52:54;18.30;49.60
42683;DHT22;28293;50.930;3.464;2023-05-17T13:55:20;18.20;46.90
42683;DHT22;28293;50.930;3.464;2023-05-17T13:57:46;18.20;47.70
42683;DHT22;28293;50.930;3.464;2023-05-17T14:00:12;18.50;48.50
42683;DHT22;28293;50.930;3.464;2023-05-17T14:02:39;18.10;47.80
42683;DHT22;28293;50.930;3.464;2023-05-17T14:05:05;17.90;48.80
42683;DHT22;28293;50.930;3.464;2023-05-17T14:07:34;18.10;48.70
42683;DHT22;28293;50.930;3.464;2023-05-17T14:10:06;17.90;48.00
42683;DHT22;28293;50.930;3.464;2023-05-17T14:12:32;17.60;49.10
42683;DHT22;28293;50.930;3.464;2023-05-17T14:14:58;17.10;49.80
42683;DHT22;28293;50.930;3.464;2023-05-17T14:17:24;17.20;51.00
42683;DHT22;28293;50.930;3.464;2023-05-17T14:19:50;17.50;50.10
42683;DHT22;28293;50.930;3.464;2023-05-17T14:22:15;17.40;49.00
42683;DHT22;28293;50.930;3.464;2023-05-17T14:24:41;17.40;48.60
42683;DHT22;28293;50.930;3.464;2023-05-17T14:27:07;17.60;48.50
42683;DHT22;28293;50.930;3.464;2023-05-17T14:29:33;17.70;48.40
42683;DHT22;28293;50.930;3.464;2023-05-17T14:31:58;18.00;49.40
42683;DHT22;28293;50.930;3.464;2023-05-17T14:34:24;18.10;48.40
42683;DHT22;28293;50.930;3.464;2023-05-17T14:36:50;17.80;48.80
42683;DHT22;28293;50.930;3.464;2023-05-17T14:39:16;17.70;48.60
42683;DHT22;28293;50.930;3.464;2023-05-17T14:41:42;17.60;48.80
42683;DHT22;28293;50.930;3.464;2023-05-17T14:44:07;17.40;48.80
42683;DHT22;28293;50.930;3.464;2023-05-17T14:46:33;17.60;49.10
42683;DHT22;28293;50.930;3.464;2023-05-17T14:48:59;17.60;49.00
42683;DHT22;28293;50.930;3.464;2023-05-17T14:51:25;17.70;47.60
42683;DHT22;28293;50.930;3.464;2023-05-17T14:53:51;17.60;47.90
42683;DHT22;28293;50.930;3.464;2023-05-17T14:56:19;17.50;47.90
42683;DHT22;28293;50.930;3.464;2023-05-17T14:58:45;17.60;48.30
42683;DHT22;28293;50.930;3.464;2023-05-17T15:01:11;17.60;48.80
42683;DHT22;28293;50.930;3.464;2023-05-17T15:03:37;17.70;49.00
42683;DHT22;28293;50.930;3.464;2023-05-17T15:06:03;17.20;50.80
42683;DHT22;28293;50.930;3.464;2023-05-17T15:08:30;17.40;49.80
42683;DHT22;28293;50.930;3.464;2023-05-17T15:11:14;17.30;48.90
42683;DHT22;28293;50.930;3.464;2023-05-17T15:13:39;17.40;48.90
42683;DHT22;28293;50.930;3.464;2023-05-17T15:16:06;17.20;48.90
42683;DHT22;28293;50.930;3.464;2023-05-17T15:18:32;17.40;50.00
42683;DHT22;28293;50.930;3.464;2023-05-17T15:20:58;17.60;49.80
42683;DHT22;28293;50.930;3.464;2023-05-17T15:23:23;17.70;49.50
42683;DHT22;28293;50.930;3.464;2023-05-17T15:25:49;17.60;48.80
42683;DHT22;28293;50.930;3.464;2023-05-17T15:28:15;17.60;47.70
42683;DHT22;28293;50.930;3.464;2023-05-17T15:30:44;17.30;48.30
42683;DHT22;28293;50.930;3.464;2023-05-17T15:33:09;17.50;49.40
42683;DHT22;28293;50.930;3.464;2023-05-17T15:35:38;17.60;48.40
42683;DHT22;28293;50.930;3.464;2023-05-17T15:38:04;17.50;49.10
42683;DHT22;28293;50.930;3.464;2023-05-17T15:40:30;17.30;49.20
42683;DHT22;28293;50.930;3.464;2023-05-17T15:42:56;17.30;49.80
42683;DHT22;28293;50.930;3.464;2023-05-17T15:45:22;17.20;49.40
42683;DHT22;28293;50.930;3.464;2023-05-17T15:47:47;17.00;50.00
42683;DHT22;28293;50.930;3.464;2023-05-17T15:50:13;17.00;50.60
42683;DHT22;28293;50.930;3.464;2023-05-17T15:52:42;17.10;49.40
42683;DHT22;28293;50.930;3.464;2023-05-17T15:55:08;16.90;50.50
42683;DHT22;28293;50.930;3.464;2023-05-17T15:57:34;16.80;50.30